createdAt,value
2022-08-18T00:00:23.133Z,9.711693
2022-08-18T00:01:23.121Z,9.711683
2022-08-18T00:02:28.788Z,9.711683
2022-08-18T00:03:53.108Z,9.711668
2022-08-18T00:04:35.789Z,9.711737
2022-08-18T00:05:24.087Z,9.711815
2022-08-18T00:06:23.086Z,9.711784
2022-08-18T00:07:23.065Z,9.711615
2022-08-18T00:08:23.069Z,9.711720
2022-08-18T00:09:23.072Z,9.711749
2022-08-18T00:10:23.055Z,9.711764
2022-08-18T00:11:23.024Z,9.711670
2022-08-18T00:12:23.026Z,9.711762
2022-08-18T00:13:23.017Z,9.711865
2022-08-18T00:14:23.096Z,9.711805
2022-08-18T00:15:23.012Z,9.711911
2022-08-18T00:16:23.003Z,9.711703
2022-08-18T00:17:23.018Z,9.711747
2022-08-18T00:18:22.989Z,9.711826
2022-08-18T00:19:43.623Z,9.711739
2022-08-18T00:20:23.983Z,9.711783
2022-08-18T00:21:22.951Z,9.711802
2022-08-18T00:22:22.942Z,9.711628
2022-08-18T00:23:22.932Z,9.711588
2022-08-18T00:24:22.940Z,9.711908
2022-08-18T00:25:22.936Z,9.712002
2022-08-18T00:26:22.946Z,9.711915
2022-08-18T00:27:26.182Z,9.711851
2022-08-18T00:28:24.133Z,9.711952
2022-08-18T00:29:22.896Z,9.711933
2022-08-18T00:30:22.868Z,9.711900
2022-08-18T00:43:24.417Z,9.711545
2022-08-18T00:44:23.397Z,9.711540
2022-08-18T00:45:23.391Z,9.711505
2022-08-18T00:46:23.377Z,9.711444
2022-08-18T00:47:32.963Z,9.711450
2022-08-18T00:48:24.382Z,9.711458
2022-08-18T00:49:23.350Z,9.711430
2022-08-18T00:50:23.357Z,9.711473
2022-08-18T00:51:23.339Z,9.711668
2022-08-18T00:52:23.368Z,9.711768
2022-08-18T00:53:23.323Z,9.711667
2022-08-18T00:54:23.329Z,9.711493
2022-08-18T00:55:23.305Z,9.711639
2022-08-18T00:56:23.304Z,9.711587
2022-08-18T00:57:23.300Z,9.711506
2022-08-18T00:58:23.281Z,9.711465
2022-08-18T00:59:23.282Z,9.711664
2022-08-18T01:00:23.269Z,9.711967
2022-08-18T01:01:23.354Z,9.712172
2022-08-18T01:02:23.242Z,9.712083
2022-08-18T01:03:24.605Z,9.712655
2022-08-18T01:04:23.245Z,9.713147
2022-08-18T01:05:23.235Z,9.713190
2022-08-18T01:06:23.216Z,9.713405
2022-08-18T01:07:23.216Z,9.713707
2022-08-18T01:08:28.860Z,9.713707
2022-08-18T01:09:24.228Z,9.713707
2022-08-18T01:10:23.306Z,9.712197
2022-08-18T01:11:23.185Z,9.711989
2022-08-18T01:12:45.775Z,9.711878
2022-08-18T01:13:24.175Z,9.711923
2022-08-18T01:14:23.177Z,9.711858
2022-08-18T01:15:28.838Z,9.711815
2022-08-18T01:16:24.151Z,9.711841
2022-08-18T01:17:23.133Z,9.711904
2022-08-18T01:18:23.119Z,9.711867
2022-08-18T01:19:23.123Z,9.711891
2022-08-18T01:20:23.100Z,9.711885
2022-08-18T01:21:23.143Z,9.711844
2022-08-18T01:22:23.091Z,9.711849
2022-08-18T01:23:23.077Z,9.711884
2022-08-18T01:24:23.082Z,9.711871
2022-08-18T01:25:23.583Z,9.711699
2022-08-18T01:26:23.086Z,9.711747
2022-08-18T01:27:23.077Z,9.711648
2022-08-18T01:28:23.054Z,9.711641
2022-08-18T01:29:23.069Z,9.711608
2022-08-18T01:30:23.019Z,9.711835
2022-08-18T01:31:23.760Z,9.711914
2022-08-18T01:32:23.009Z,9.711935
2022-08-18T01:33:22.995Z,9.711802
2022-08-18T01:34:23.988Z,9.711668
2022-08-18T01:35:23.000Z,9.711784
2022-08-18T01:36:23.065Z,9.711788
2022-08-18T01:37:22.970Z,9.711800
2022-08-18T01:38:22.952Z,9.711813
2022-08-18T01:41:23.888Z,9.711845
2022-08-18T01:41:24.228Z,9.711818
2022-08-18T01:41:30.318Z,9.711802
2022-08-18T01:42:24.938Z,9.711777
2022-08-18T01:43:22.906Z,9.711793
2022-08-18T01:48:31.250Z,9.711823
2022-08-18T01:49:30.292Z,9.711748
2022-08-18T01:50:30.236Z,9.711745
2022-08-18T01:51:39.453Z,9.711731
2022-08-18T01:52:31.225Z,9.711720
2022-08-18T01:53:30.209Z,9.711795
2022-08-18T01:54:30.370Z,9.711746
2022-08-18T01:55:30.193Z,9.711770
2022-08-18T01:56:30.191Z,9.711812
2022-08-18T01:57:30.182Z,9.711783
2022-08-18T01:58:31.809Z,9.711719
2022-08-18T01:59:31.161Z,9.711873
2022-08-18T02:00:30.150Z,9.712316
2022-08-18T02:01:36.642Z,9.712195
2022-08-18T02:02:31.187Z,9.711818
2022-08-18T02:03:30.135Z,9.711143
2022-08-18T02:04:37.614Z,9.711109
2022-08-18T02:05:32.116Z,9.711682
2022-08-18T02:06:32.488Z,9.712274
2022-08-18T02:07:35.951Z,9.712142
2022-08-18T02:08:31.097Z,9.711768
2022-08-18T02:09:30.083Z,9.711717
2022-08-18T02:10:30.076Z,9.711727
2022-08-18T02:11:30.065Z,9.711632
2022-08-18T02:12:30.059Z,9.711584
2022-08-18T02:13:30.059Z,9.711535
2022-08-18T02:14:31.304Z,9.711642
2022-08-18T02:15:30.044Z,9.711624
2022-08-18T02:16:30.027Z,9.711675
2022-08-18T02:17:30.020Z,9.711690
2022-08-18T02:18:47.226Z,9.711651
2022-08-18T02:19:32.001Z,9.711592
2022-08-18T02:20:30.014Z,9.711617
2022-08-18T02:21:29.990Z,9.711595
2022-08-18T02:22:29.979Z,9.711607
2022-08-18T02:23:29.976Z,9.711590
2022-08-18T02:24:29.966Z,9.711695
2022-08-18T02:25:29.995Z,9.711734
2022-08-18T02:26:29.948Z,9.711717
2022-08-18T02:27:29.938Z,9.711772
2022-08-18T02:28:30.742Z,9.711610
2022-08-18T02:29:30.929Z,9.711590
2022-08-18T02:30:29.917Z,9.711468
2022-08-18T02:31:29.923Z,9.711473
2022-08-18T02:32:29.896Z,9.711619
2022-08-18T02:33:29.889Z,9.711560
2022-08-18T02:34:29.882Z,9.711478
2022-08-18T02:35:29.872Z,9.711526
2022-08-18T02:36:29.870Z,9.711629
2022-08-18T02:37:29.852Z,9.711654
2022-08-18T02:38:29.851Z,9.711527
2022-08-18T02:39:29.929Z,9.711926
2022-08-18T02:40:29.839Z,9.711851
2022-08-18T02:41:30.187Z,9.712139
2022-08-18T02:42:29.818Z,9.712069
2022-08-18T02:43:31.161Z,9.712127
2022-08-18T02:44:30.629Z,9.712390
2022-08-18T02:45:30.796Z,9.712565
2022-08-18T02:46:31.305Z,9.712034
2022-08-18T02:47:33.521Z,9.711663
2022-08-18T02:48:30.770Z,9.711534
2022-08-18T02:49:29.767Z,9.711248
2022-08-18T02:50:29.754Z,9.711110
2022-08-18T02:51:29.743Z,9.711444
2022-08-18T02:52:29.752Z,9.711554
2022-08-18T02:53:29.720Z,9.711539
2022-08-18T02:54:29.717Z,9.711175
2022-08-18T02:55:29.711Z,9.711262
2022-08-18T02:56:32.863Z,9.711369
2022-08-18T02:57:30.688Z,9.711396
2022-08-18T02:58:33.571Z,9.711337
2022-08-18T02:59:31.944Z,9.711513
2022-08-18T03:00:29.680Z,9.711696
2022-08-18T03:01:29.775Z,9.711452
2022-08-18T03:02:29.650Z,9.711273
2022-08-18T03:03:29.642Z,9.711676
2022-08-18T03:04:30.548Z,9.711478
2022-08-18T03:05:29.637Z,9.711382
2022-08-18T03:06:29.619Z,9.711440
2022-08-18T03:07:29.616Z,9.711551
2022-08-18T03:08:29.600Z,9.711632
2022-08-18T03:09:29.593Z,9.711634
2022-08-18T03:10:33.006Z,9.711664
2022-08-18T03:11:29.588Z,9.711642
2022-08-18T03:12:29.580Z,9.711667
2022-08-18T03:13:29.561Z,9.711649
2022-08-18T03:14:29.560Z,9.711651
2022-08-18T03:15:29.552Z,9.711664
2022-08-18T03:16:29.546Z,9.711648
2022-08-18T03:17:29.532Z,9.711663
2022-08-18T03:18:29.523Z,9.711654
2022-08-18T03:19:29.635Z,9.711613
2022-08-18T03:20:30.282Z,9.711637
2022-08-18T03:21:29.500Z,9.711645
2022-08-18T03:22:29.763Z,9.711632
2022-08-18T03:23:30.095Z,9.711652
2022-08-18T03:24:29.488Z,9.711643
2022-08-18T03:25:29.466Z,9.711616
2022-08-18T03:26:29.460Z,9.711642
2022-08-18T03:27:30.078Z,9.711623
2022-08-18T03:28:29.444Z,9.711627
2022-08-18T03:29:32.317Z,9.711660
2022-08-18T03:30:30.431Z,9.711666
2022-08-18T03:31:29.418Z,9.711667
2022-08-18T03:32:29.413Z,9.711656
2022-08-18T03:33:29.435Z,9.711665
2022-08-18T03:34:29.408Z,9.711649
2022-08-18T03:35:29.395Z,9.711651
2022-08-18T03:36:29.384Z,9.711646
2022-08-18T03:37:29.374Z,9.711702
2022-08-18T03:38:29.364Z,9.711646
2022-08-18T03:39:29.470Z,9.711640
2022-08-18T03:40:29.381Z,9.711613
2022-08-18T03:41:57.117Z,9.711652
2022-08-18T03:42:30.336Z,9.711646
2022-08-18T03:43:50.756Z,9.711617
2022-08-18T03:44:31.107Z,9.711672
2022-08-18T03:45:29.673Z,9.711645
2022-08-18T03:46:29.298Z,9.711722
2022-08-18T03:47:29.287Z,9.711571
2022-08-18T03:48:29.283Z,9.711616
2022-08-18T03:49:29.280Z,9.711655
2022-08-18T03:50:29.267Z,9.711626
2022-08-18T03:51:29.257Z,9.711612
2022-08-18T03:52:29.250Z,9.711656
2022-08-18T03:53:29.241Z,9.711673
2022-08-18T03:54:29.280Z,9.711606
2022-08-18T03:55:29.233Z,9.711621
2022-08-18T03:56:29.206Z,9.711639
2022-08-18T03:57:30.214Z,9.711560
2022-08-18T03:58:29.204Z,9.711674
2022-08-18T03:59:29.199Z,9.711555
2022-08-18T04:00:29.194Z,9.711599
2022-08-18T04:01:29.224Z,9.711570
2022-08-18T04:02:29.175Z,9.711601
2022-08-18T04:03:29.173Z,9.711615
2022-08-18T04:04:29.159Z,9.711533
2022-08-18T04:05:29.156Z,9.711606
2022-08-18T04:06:29.883Z,9.711564
2022-08-18T04:07:29.142Z,9.711593
2022-08-18T04:08:29.127Z,9.711601
2022-08-18T04:09:29.124Z,9.711627
2022-08-18T04:10:29.117Z,9.711637
2022-08-18T04:11:29.104Z,9.711642
2022-08-18T04:12:30.092Z,9.711645
2022-08-18T04:13:29.086Z,9.711648
2022-08-18T04:14:29.092Z,9.711638
2022-08-18T04:15:29.075Z,9.711616
2022-08-18T04:16:29.061Z,9.711608
2022-08-18T04:17:29.063Z,9.711588
2022-08-18T04:18:29.042Z,9.711615
2022-08-18T04:19:29.076Z,9.711591
2022-08-18T04:20:29.030Z,9.711605
2022-08-18T04:21:29.038Z,9.711619
2022-08-18T04:22:29.017Z,9.711575
2022-08-18T04:23:29.012Z,9.711532
2022-08-18T04:24:31.170Z,9.711535
2022-08-18T04:25:32.728Z,9.711605
2022-08-18T04:26:29.982Z,9.711649
2022-08-18T04:27:28.983Z,9.711722
2022-08-18T04:28:28.976Z,9.711714
2022-08-18T04:29:28.976Z,9.711852
2022-08-18T04:30:28.953Z,9.711811
2022-08-18T04:31:28.946Z,9.711733
2022-08-18T04:32:30.293Z,9.711605
2022-08-18T04:33:28.931Z,9.711473
2022-08-18T04:34:28.934Z,9.711657
2022-08-18T04:35:29.083Z,9.711806
2022-08-18T04:36:28.905Z,9.711754
2022-08-18T04:37:28.904Z,9.711876
2022-08-18T04:38:28.886Z,9.711629
2022-08-18T04:39:28.920Z,9.711654
2022-08-18T04:40:28.900Z,9.711555
2022-08-18T04:41:28.859Z,9.711581
2022-08-18T04:42:28.861Z,9.711624
2022-08-18T04:43:28.844Z,9.711652
2022-08-18T04:44:28.842Z,9.711571
2022-08-18T04:45:28.826Z,9.711609
2022-08-18T04:46:28.819Z,9.711679
2022-08-18T04:47:28.818Z,9.711726
2022-08-18T04:48:28.809Z,9.711857
2022-08-18T04:49:28.794Z,9.711894
2022-08-18T04:50:28.795Z,9.712106
2022-08-18T04:52:37.752Z,9.712196
2022-08-18T04:52:40.241Z,9.712291
2022-08-18T04:53:29.761Z,9.712231
2022-08-18T04:54:28.755Z,9.712306
2022-08-18T04:55:28.757Z,9.711711
2022-08-18T04:56:28.742Z,9.711636
2022-08-18T04:57:28.730Z,9.711820
2022-08-18T04:58:28.725Z,9.712154
2022-08-18T04:59:28.719Z,9.711905
2022-08-18T05:00:28.705Z,9.711823
2022-08-18T05:01:28.797Z,9.712000
2022-08-18T05:02:28.692Z,9.711632
2022-08-18T05:03:28.683Z,9.711642
2022-08-18T05:04:28.688Z,9.711581
2022-08-18T05:05:28.666Z,9.711975
2022-08-18T05:06:28.657Z,9.712011
2022-08-18T05:07:28.653Z,9.712105
2022-08-18T05:08:28.647Z,9.712268
2022-08-18T05:09:28.647Z,9.712450
2022-08-18T05:10:28.627Z,9.712523
2022-08-18T05:11:28.621Z,9.712243
2022-08-18T05:12:28.614Z,9.712059
2022-08-18T05:13:28.609Z,9.712116
2022-08-18T05:14:28.605Z,9.712049
2022-08-18T05:15:28.819Z,9.712149
2022-08-18T05:16:28.589Z,9.712346
2022-08-18T05:17:30.137Z,9.712440
2022-08-18T05:18:28.570Z,9.712209
2022-08-18T05:19:28.569Z,9.712204
2022-08-18T05:20:28.564Z,9.712249
2022-08-18T05:21:28.551Z,9.712383
2022-08-18T05:22:31.376Z,9.712527
2022-08-18T05:23:28.534Z,9.712148
2022-08-18T05:24:33.570Z,9.712083
2022-08-18T05:25:30.520Z,9.712274
2022-08-18T05:26:28.509Z,9.712126
2022-08-18T05:27:28.501Z,9.711705
2022-08-18T05:28:28.496Z,9.711630
2022-08-18T05:29:28.486Z,9.711525
2022-08-18T05:30:28.490Z,9.711402
2022-08-18T05:31:28.477Z,9.711356
2022-08-18T05:32:46.310Z,9.711285
2022-08-18T05:33:29.456Z,9.711201
2022-08-18T05:34:28.501Z,9.710961
2022-08-18T05:35:28.446Z,9.711100
2022-08-18T05:36:28.430Z,9.711604
2022-08-18T05:37:28.425Z,9.711699
2022-08-18T05:38:29.421Z,9.711601
2022-08-18T05:39:28.481Z,9.711544
2022-08-18T05:40:28.407Z,9.711580
2022-08-18T05:41:28.394Z,9.711393
2022-08-18T05:42:28.777Z,9.711413
2022-08-18T05:43:28.377Z,9.711359
2022-08-18T05:44:28.375Z,9.711423
2022-08-18T05:45:28.369Z,9.711637
2022-08-18T05:46:28.365Z,9.711637
2022-08-18T05:47:28.346Z,9.711750
2022-08-18T05:48:28.337Z,9.711902
2022-08-18T05:49:28.334Z,9.711640
2022-08-18T05:50:28.321Z,9.711761
2022-08-18T05:51:28.325Z,9.711609
2022-08-18T05:52:28.303Z,9.711551
2022-08-18T05:53:28.299Z,9.711566
2022-08-18T05:54:28.297Z,9.711633
2022-08-18T05:55:28.291Z,9.711734
2022-08-18T05:56:28.282Z,9.711888
2022-08-18T05:57:28.268Z,9.711595
2022-08-18T05:58:33.299Z,9.711643
2022-08-18T05:59:29.255Z,9.711688
2022-08-18T06:00:28.279Z,9.711569
2022-08-18T06:01:28.242Z,9.711537
2022-08-18T06:02:28.230Z,9.711453
2022-08-18T06:03:28.261Z,9.711584
2022-08-18T06:04:28.215Z,9.711706
2022-08-18T06:05:28.204Z,9.711634
2022-08-18T06:06:28.213Z,9.711406
2022-08-18T06:07:28.196Z,9.711297
2022-08-18T06:08:29.183Z,9.711651
2022-08-18T06:09:28.186Z,9.711465
2022-08-18T06:10:28.271Z,9.711570
2022-08-18T06:11:28.172Z,9.711556
2022-08-18T06:12:28.152Z,9.711592
2022-08-18T06:13:28.162Z,9.711650
2022-08-18T06:14:28.136Z,9.711495
2022-08-18T06:15:28.127Z,9.711497
2022-08-18T06:16:28.118Z,9.711338
2022-08-18T06:17:28.121Z,9.711498
2022-08-18T06:18:28.103Z,9.711562
2022-08-18T06:19:28.097Z,9.711538
2022-08-18T06:20:28.224Z,9.711583
2022-08-18T06:21:28.080Z,9.711512
2022-08-18T06:22:30.539Z,9.711578
2022-08-18T06:23:28.067Z,9.711522
2022-08-18T06:24:28.053Z,9.711519
2022-08-18T06:25:28.061Z,9.711588
2022-08-18T06:26:28.048Z,9.711476
2022-08-18T06:27:28.067Z,9.711499
2022-08-18T06:28:28.029Z,9.711564
2022-08-18T06:29:28.016Z,9.711534
2022-08-18T06:30:28.008Z,9.711551
2022-08-18T06:31:29.559Z,9.711547
2022-08-18T06:32:28.997Z,9.711555
2022-08-18T06:33:27.986Z,9.711577
2022-08-18T06:34:27.977Z,9.711593
2022-08-18T06:35:27.995Z,9.711570
2022-08-18T06:36:27.969Z,9.711569
2022-08-18T06:37:28.715Z,9.711576
2022-08-18T06:38:27.946Z,9.711533
2022-08-18T06:39:28.005Z,9.711602
2022-08-18T06:40:27.933Z,9.711669
2022-08-18T06:41:40.700Z,9.711649
2022-08-18T06:42:28.914Z,9.711646
2022-08-18T06:43:27.907Z,9.711645
2022-08-18T06:44:27.903Z,9.711632
2022-08-18T06:45:33.780Z,9.711692
2022-08-18T06:46:28.894Z,9.711691
2022-08-18T06:47:27.877Z,9.711692
2022-08-18T06:48:27.872Z,9.711715
2022-08-18T06:49:27.867Z,9.711745
2022-08-18T06:50:27.861Z,9.711671
2022-08-18T06:51:27.847Z,9.711706
2022-08-18T06:52:27.870Z,9.711731
2022-08-18T06:53:28.390Z,9.711746
2022-08-18T06:54:27.836Z,9.711711
2022-08-18T06:55:27.813Z,9.711669
2022-08-18T06:56:27.807Z,9.711779
2022-08-18T06:57:27.809Z,9.711632
2022-08-18T06:58:27.790Z,9.711882
2022-08-18T06:59:27.782Z,9.711851
2022-08-18T07:00:27.777Z,9.711938
2022-08-18T07:01:27.793Z,9.711987
2022-08-18T07:02:27.769Z,9.711967
2022-08-18T07:03:28.775Z,9.711916
2022-08-18T07:04:27.742Z,9.711974
2022-08-18T07:05:27.737Z,9.712223
2022-08-18T07:06:27.728Z,9.712279
2022-08-18T07:07:27.725Z,9.712112
2022-08-18T07:08:28.713Z,9.711977
2022-08-18T07:09:27.721Z,9.711960
2022-08-18T07:10:27.716Z,9.711988
2022-08-18T07:11:27.684Z,9.712017
2022-08-18T07:12:32.254Z,9.712014
2022-08-18T07:13:30.212Z,9.712013
2022-08-18T07:14:27.685Z,9.711830
2022-08-18T07:15:27.652Z,9.711870
2022-08-18T07:16:54.516Z,9.711802
2022-08-18T07:17:42.564Z,9.711919
2022-08-18T07:18:28.626Z,9.712159
2022-08-18T07:19:27.619Z,9.711959
2022-08-18T07:20:27.614Z,9.711909
2022-08-18T07:21:27.604Z,9.711942
2022-08-18T07:22:38.932Z,9.712011
2022-08-18T07:23:28.612Z,9.712029
2022-08-18T07:24:27.585Z,9.711955
2022-08-18T07:25:27.572Z,9.711853
2022-08-18T07:26:27.565Z,9.711851
2022-08-18T07:27:28.234Z,9.711961
2022-08-18T07:28:27.559Z,9.712078
2022-08-18T07:29:27.536Z,9.711901
2022-08-18T07:30:27.539Z,9.711940
2022-08-18T07:31:27.546Z,9.712050
2022-08-18T07:32:27.512Z,9.712120
2022-08-18T07:33:27.519Z,9.712090
2022-08-18T07:34:27.532Z,9.712111
2022-08-18T07:35:27.506Z,9.712666
2022-08-18T07:36:27.484Z,9.712451
2022-08-18T07:37:28.950Z,9.711999
2022-08-18T07:38:42.453Z,9.711924
2022-08-18T07:39:29.525Z,9.711904
2022-08-18T07:40:27.476Z,9.712046
2022-08-18T07:41:28.242Z,9.712171
2022-08-18T07:42:53.534Z,9.711986
2022-08-18T07:43:28.423Z,9.711914
2022-08-18T07:44:27.414Z,9.711713
2022-08-18T07:45:27.411Z,9.711676
2022-08-18T07:46:27.397Z,9.711695
2022-08-18T07:47:27.398Z,9.711824
2022-08-18T07:48:38.175Z,9.711737
2022-08-18T07:49:29.376Z,9.711634
2022-08-18T07:50:57.652Z,9.711651
2022-08-18T07:51:37.046Z,9.711700
2022-08-18T07:52:43.935Z,9.711674
2022-08-18T07:53:28.356Z,9.711682
2022-08-18T07:54:48.470Z,9.711711
2022-08-18T07:55:29.328Z,9.711694
2022-08-18T07:56:27.321Z,9.711699
2022-08-18T07:57:27.310Z,9.711673
2022-08-18T07:58:27.339Z,9.711675
2022-08-18T07:59:27.292Z,9.711699
2022-08-18T08:00:57.086Z,9.711674
2022-08-18T08:01:29.307Z,9.711693
2022-08-18T08:02:27.274Z,9.711633
2022-08-18T08:03:27.287Z,9.711685
2022-08-18T08:04:27.251Z,9.711714
2022-08-18T08:05:27.239Z,9.711720
2022-08-18T08:06:27.247Z,9.711708
2022-08-18T08:07:27.251Z,9.711746
2022-08-18T08:08:27.223Z,9.711695
2022-08-18T08:09:27.215Z,9.711687
2022-08-18T08:10:27.202Z,9.711535
2022-08-18T08:11:27.203Z,9.711679
2022-08-18T08:12:27.186Z,9.711618
2022-08-18T08:13:53.533Z,9.711206
2022-08-18T08:14:29.201Z,9.710763
2022-08-18T08:15:27.360Z,9.710763
2022-08-18T08:16:27.167Z,9.711515
2022-08-18T08:17:27.147Z,9.711589
2022-08-18T08:18:27.137Z,9.711156
2022-08-18T08:19:49.342Z,9.711156
2022-08-18T08:20:32.889Z,9.712012
2022-08-18T08:21:27.145Z,9.712012
2022-08-18T08:22:27.110Z,9.712012
2022-08-18T08:23:27.101Z,9.712012
2022-08-18T08:24:27.099Z,9.712012
2022-08-18T08:25:47.550Z,9.712012
2022-08-18T08:26:29.079Z,9.712012
2022-08-18T08:27:27.682Z,9.712012
2022-08-18T08:28:27.065Z,9.712012
2022-08-18T08:29:27.066Z,9.711543
2022-08-18T08:30:27.048Z,9.711633
2022-08-18T08:31:39.761Z,9.711499
2022-08-18T08:32:29.031Z,9.711561
2022-08-18T08:33:27.028Z,9.711616
2022-08-18T08:34:27.028Z,9.711495
2022-08-18T08:35:50.159Z,9.711473
2022-08-18T08:36:28.020Z,9.711646
2022-08-18T08:37:26.991Z,9.711570
2022-08-18T08:38:42.301Z,9.711601
2022-08-18T08:39:29.062Z,9.711516
2022-08-18T08:40:26.972Z,9.711753
2022-08-18T08:41:26.965Z,9.711710
2022-08-18T08:42:31.547Z,9.711700
2022-08-18T08:43:27.946Z,9.711666
2022-08-18T08:44:26.934Z,9.711649
2022-08-18T08:45:26.935Z,9.711644
2022-08-18T08:46:26.935Z,9.711599
2022-08-18T08:47:26.922Z,9.711848
2022-08-18T08:48:26.901Z,9.711804
2022-08-18T08:49:26.895Z,9.711693
2022-08-18T08:50:26.893Z,9.711565
2022-08-18T08:51:26.893Z,9.711623
2022-08-18T08:52:26.867Z,9.711551
2022-08-18T08:53:26.859Z,9.711667
2022-08-18T08:54:26.856Z,9.711693
2022-08-18T08:55:26.849Z,9.711677
2022-08-18T08:56:26.838Z,9.711681
2022-08-18T08:57:27.690Z,9.711690
2022-08-18T08:58:26.821Z,9.711744
2022-08-18T08:59:26.813Z,9.711703
2022-08-18T09:00:26.810Z,9.711696
2022-08-18T09:01:26.883Z,9.711740
2022-08-18T09:02:46.820Z,9.711726
2022-08-18T09:03:30.260Z,9.711723
2022-08-18T09:04:26.770Z,9.711761
2022-08-18T09:05:26.819Z,9.711719
2022-08-18T09:06:26.769Z,9.711741
2022-08-18T09:07:26.744Z,9.711717
2022-08-18T09:08:26.745Z,9.711769
2022-08-18T09:09:26.735Z,9.711728
2022-08-18T09:10:26.725Z,9.711699
2022-08-18T09:11:26.723Z,9.711693
2022-08-18T09:12:26.715Z,9.711790
2022-08-18T09:13:29.171Z,9.711733
2022-08-18T09:14:27.687Z,9.711710
2022-08-18T09:15:26.683Z,9.711668
2022-08-18T09:16:27.779Z,9.711571
2022-08-18T09:17:30.026Z,9.711662
2022-08-18T09:18:27.649Z,9.711598
2022-08-18T09:19:26.651Z,9.711747
2022-08-18T09:20:26.646Z,9.711578
2022-08-18T09:21:26.623Z,9.711609
2022-08-18T09:22:27.177Z,9.711641
2022-08-18T09:23:26.611Z,9.711689
2022-08-18T09:24:26.612Z,9.711530
2022-08-18T09:25:26.602Z,9.711405
2022-08-18T09:26:26.591Z,9.711503
2022-08-18T09:27:26.596Z,9.711444
2022-08-18T09:28:26.579Z,9.711568
2022-08-18T09:29:26.565Z,9.711596
2022-08-18T09:30:26.565Z,9.711666
2022-08-18T09:31:26.550Z,9.711594
2022-08-18T09:32:28.209Z,9.711667
2022-08-18T09:33:26.543Z,9.711686
2022-08-18T09:34:26.527Z,9.711566
2022-08-18T09:35:26.525Z,9.711646
2022-08-18T09:36:26.513Z,9.711670
2022-08-18T09:37:26.573Z,9.711674
2022-08-18T09:38:26.505Z,9.711634
2022-08-18T09:39:26.620Z,9.711636
2022-08-18T09:40:51.341Z,9.711627
2022-08-18T09:41:28.472Z,9.711612
2022-08-18T09:42:29.897Z,9.711545
2022-08-18T09:43:26.467Z,9.711519
2022-08-18T09:44:26.578Z,9.711574
2022-08-18T09:45:31.058Z,9.711568
2022-08-18T09:46:28.438Z,9.711685
2022-08-18T09:47:27.505Z,9.711649
2022-08-18T09:49:27.422Z,9.711660
2022-08-18T09:50:26.805Z,9.711650
2022-08-18T09:50:37.216Z,9.711614
2022-08-18T09:51:27.396Z,9.711578
2022-08-18T09:52:26.427Z,9.711530
2022-08-18T09:53:26.381Z,9.711536
2022-08-18T09:54:26.377Z,9.711517
2022-08-18T09:55:26.367Z,9.711417
2022-08-18T09:56:28.675Z,9.711601
2022-08-18T09:57:26.362Z,9.711543
2022-08-18T09:58:26.352Z,9.711611
2022-08-18T09:59:26.321Z,9.711575
2022-08-18T10:00:28.251Z,9.711664
2022-08-18T10:01:26.362Z,9.711648
2022-08-18T10:02:28.059Z,9.711637
2022-08-18T10:03:26.476Z,9.711567
2022-08-18T10:04:29.227Z,9.711667
2022-08-18T10:05:26.290Z,9.711712
2022-08-18T10:06:27.616Z,9.711734
2022-08-18T10:07:26.274Z,9.711637
2022-08-18T10:08:26.270Z,9.711779
2022-08-18T10:09:36.972Z,9.711691
2022-08-18T10:11:01.247Z,9.711684
2022-08-18T10:11:27.238Z,9.711745
2022-08-18T10:12:27.453Z,9.711753
2022-08-18T10:13:26.233Z,9.711734
2022-08-18T10:14:26.227Z,9.711735
2022-08-18T10:15:33.125Z,9.711664
2022-08-18T10:16:28.141Z,9.711783
2022-08-18T10:17:26.194Z,9.711720
2022-08-18T10:18:26.185Z,9.711865
2022-08-18T10:19:28.165Z,9.711759
2022-08-18T10:20:28.179Z,9.711783
2022-08-18T10:21:26.166Z,9.711294
2022-08-18T10:22:35.171Z,9.710856
2022-08-18T10:23:28.147Z,9.711288
2022-08-18T10:24:35.847Z,9.711448
2022-08-18T10:25:28.133Z,9.711552
2022-08-18T10:26:26.143Z,9.711762
2022-08-18T10:27:26.118Z,9.711750
2022-08-18T10:28:26.110Z,9.711679
2022-08-18T10:29:26.097Z,9.711639
2022-08-18T10:30:30.449Z,9.711766
2022-08-18T10:31:27.285Z,9.711555
2022-08-18T10:32:26.072Z,9.711664
2022-08-18T10:33:26.074Z,9.711738
2022-08-18T10:34:26.064Z,9.711649
2022-08-18T10:35:32.662Z,9.711462
2022-08-18T10:36:28.806Z,9.711658
2022-08-18T10:37:26.341Z,9.711438
2022-08-18T10:38:26.026Z,9.711642
2022-08-18T10:39:27.117Z,9.711600
2022-08-18T10:40:26.652Z,9.711712
2022-08-18T10:41:26.731Z,9.711777
2022-08-18T10:42:28.599Z,9.711700
2022-08-18T10:44:29.591Z,9.711614
2022-08-18T10:45:26.985Z,9.711602
2022-08-18T10:46:28.520Z,9.711622
2022-08-18T10:47:33.500Z,9.711763
2022-08-18T10:48:27.078Z,9.711705
2022-08-18T10:50:26.933Z,9.711658
2022-08-18T10:51:25.935Z,9.711795
2022-08-18T10:52:25.921Z,9.711973
2022-08-18T10:53:40.710Z,9.711703
2022-08-18T10:54:27.920Z,9.711296
2022-08-18T10:55:25.910Z,9.711576
2022-08-18T10:56:27.430Z,9.711804
2022-08-18T10:57:25.889Z,9.711759
2022-08-18T10:58:28.220Z,9.711887
2022-08-18T10:59:28.083Z,9.711889
2022-08-18T11:00:26.099Z,9.711735
2022-08-18T11:01:25.856Z,9.711891
2022-08-18T11:02:26.848Z,9.711768
2022-08-18T11:03:55.491Z,9.712070
2022-08-18T11:04:34.526Z,9.711939
2022-08-18T11:05:27.827Z,9.712020
2022-08-18T11:06:25.828Z,9.711962
2022-08-18T11:07:25.824Z,9.712028
2022-08-18T11:08:25.839Z,9.711742
2022-08-18T11:09:25.798Z,9.711806
2022-08-18T11:10:30.032Z,9.711806
2022-08-18T11:12:27.771Z,9.711729
2022-08-18T11:13:26.121Z,9.711698
2022-08-18T11:14:25.769Z,9.711761
2022-08-18T11:15:25.750Z,9.711767
2022-08-18T11:16:25.741Z,9.711790
2022-08-18T11:17:26.362Z,9.711783
2022-08-18T11:18:25.728Z,9.711793
2022-08-18T11:19:25.714Z,9.711679
2022-08-18T11:20:25.710Z,9.711799
2022-08-18T11:21:25.702Z,9.711826
2022-08-18T11:22:31.501Z,9.711862
2022-08-18T11:23:26.690Z,9.711907
2022-08-18T11:24:25.686Z,9.711740
2022-08-18T11:25:25.672Z,9.711661
2022-08-18T11:26:25.664Z,9.711570
2022-08-18T11:27:25.651Z,9.711621
2022-08-18T11:29:26.630Z,9.711715
2022-08-18T11:30:30.426Z,9.711670
2022-08-18T11:31:26.621Z,9.711660
2022-08-18T11:32:26.258Z,9.711682
2022-08-18T11:33:25.608Z,9.711690
2022-08-18T11:34:25.596Z,9.711686
2022-08-18T11:35:25.594Z,9.711642
2022-08-18T11:36:26.150Z,9.711639
2022-08-18T11:37:25.576Z,9.711705
2022-08-18T11:38:25.565Z,9.711708
2022-08-18T11:39:36.861Z,9.711705
2022-08-18T11:41:08.974Z,9.711667
2022-08-18T11:41:48.259Z,9.711742
2022-08-18T11:42:26.543Z,9.711732
2022-08-18T11:43:25.534Z,9.711714
2022-08-18T11:44:25.610Z,9.711727
2022-08-18T11:45:25.520Z,9.711713
2022-08-18T11:46:30.134Z,9.711708
2022-08-18T11:47:27.702Z,9.711670
2022-08-18T11:48:32.158Z,9.711691
2022-08-18T11:49:27.480Z,9.711724
2022-08-18T11:50:25.475Z,9.711705
2022-08-18T11:51:25.596Z,9.711680
2022-08-18T11:52:29.074Z,9.711692
2022-08-18T11:53:27.338Z,9.711728
2022-08-18T11:54:25.441Z,9.711715
2022-08-18T11:55:25.435Z,9.711690
2022-08-18T11:56:27.102Z,9.711671
2022-08-18T11:57:26.437Z,9.711658
2022-08-18T11:58:25.415Z,9.711670
2022-08-18T11:59:52.655Z,9.711653
2022-08-18T12:00:26.407Z,9.711623
2022-08-18T12:01:25.393Z,9.711654
2022-08-18T12:02:25.440Z,9.711658
2022-08-18T12:03:28.454Z,9.711645
2022-08-18T12:04:26.277Z,9.711651